sensor_id;sensor_type;location;lat;lon;timestamp;temperature;humidity
15044;DHT22;7619;48.562;8.910;2022-09-09T00:00:32;14.00;99.90
15044;DHT22;7619;48.562;8.910;2022-09-09T00:05:37;14.10;99.90
15044;DHT22;7619;48.562;8.910;2022-09-09T00:08:11;14.20;99.90
15044;DHT22;7619;48.562;8.910;2022-09-09T00:13:15;14.40;99.90
15044;DHT22;7619;48.562;8.910;2022-09-09T00:15:48;14.50;99.90
15044;DHT22;7619;48.562;8.910;2022-09-09T00:18:22;14.50;99.90
15044;DHT22;7619;48.562;8.910;2022-09-09T00:20:55;14.50;99.90
15044;DHT22;7619;48.562;8.910;2022-09-09T00:23:27;14.50;99.90
15044;DHT22;7619;48.562;8.910;2022-09-09T00:26:04;14.50;99.90
15044;DHT22;7619;48.562;8.910;2022-09-09T00:28:38;14.50;99.90
15044;DHT22;7619;48.562;8.910;2022-09-09T00:31:12;14.40;99.90
15044;DHT22;7619;48.562;8.910;2022-09-09T00:33:43;14.30;99.90
15044;DHT22;7619;48.562;8.910;2022-09-09T00:36:15;14.20;99.90
15044;DHT22;7619;48.562;8.910;2022-09-09T00:41:20;14.30;99.90
15044;DHT22;7619;48.562;8.910;2022-09-09T00:43:56;14.30;1.00
15044;DHT22;7619;48.562;8.910;2022-09-09T00:46:36;14.20;1.00
15044;DHT22;7619;48.562;8.910;2022-09-09T00:49:09;14.20;99.90
15044;DHT22;7619;48.562;8.910;2022-09-09T00:51:45;14.30;1.00
15044;DHT22;7619;48.562;8.910;2022-09-09T00:54:25;14.30;99.90
15044;DHT22;7619;48.562;8.910;2022-09-09T00:59:28;14.20;1.00
15044;DHT22;7619;48.562;8.910;2022-09-09T01:04:32;14.20;80.80
15044;DHT22;7619;48.562;8.910;2022-09-09T01:09:37;14.10;1.00
15044;DHT22;7619;48.562;8.910;2022-09-09T01:14:48;14.00;80.50
15044;DHT22;7619;48.562;8.910;2022-09-09T01:19:57;14.10;1.00
15044;DHT22;7619;48.562;8.910;2022-09-09T01:22:32;14.10;1.00
15044;DHT22;7619;48.562;8.910;2022-09-09T01:25:29;14.20;1.00
15044;DHT22;7619;48.562;8.910;2022-09-09T01:28:00;14.20;99.90
15044;DHT22;7619;48.562;8.910;2022-09-09T01:30:31;14.10;99.90
15044;DHT22;7619;48.562;8.910;2022-09-09T01:33:01;14.10;1.00
15044;DHT22;7619;48.562;8.910;2022-09-09T01:48:44;13.90;99.90
15044;DHT22;7619;48.562;8.910;2022-09-09T01:51:14;13.70;43.50
15044;DHT22;7619;48.562;8.910;2022-09-09T01:53:44;13.50;99.90
15044;DHT22;7619;48.562;8.910;2022-09-09T01:58:57;13.40;99.90
15044;DHT22;7619;48.562;8.910;2022-09-09T02:01:32;13.30;99.90
15044;DHT22;7619;48.562;8.910;2022-09-09T02:04:03;13.30;99.90
15044;DHT22;7619;48.562;8.910;2022-09-09T02:06:35;13.30;99.90
15044;DHT22;7619;48.562;8.910;2022-09-09T02:09:06;13.30;99.90
15044;DHT22;7619;48.562;8.910;2022-09-09T02:11:36;13.40;99.90
15044;DHT22;7619;48.562;8.910;2022-09-09T02:16:38;13.60;99.90
15044;DHT22;7619;48.562;8.910;2022-09-09T02:19:10;13.50;99.90
15044;DHT22;7619;48.562;8.910;2022-09-09T02:21:43;13.50;99.90
15044;DHT22;7619;48.562;8.910;2022-09-09T02:24:14;13.50;99.90
15044;DHT22;7619;48.562;8.910;2022-09-09T02:26:46;13.60;99.90
15044;DHT22;7619;48.562;8.910;2022-09-09T02:29:18;13.60;99.90
15044;DHT22;7619;48.562;8.910;2022-09-09T02:31:49;13.60;99.90
15044;DHT22;7619;48.562;8.910;2022-09-09T02:34:21;13.50;99.90
15044;DHT22;7619;48.562;8.910;2022-09-09T02:36:53;13.50;99.90
15044;DHT22;7619;48.562;8.910;2022-09-09T02:39:22;13.50;99.90
15044;DHT22;7619;48.562;8.910;2022-09-09T02:41:51;13.40;99.90
15044;DHT22;7619;48.562;8.910;2022-09-09T02:44:21;13.00;99.90
15044;DHT22;7619;48.562;8.910;2022-09-09T02:47:02;12.80;99.90
15044;DHT22;7619;48.562;8.910;2022-09-09T02:49:37;12.80;99.90
15044;DHT22;7619;48.562;8.910;2022-09-09T02:52:06;12.80;99.90
15044;DHT22;7619;48.562;8.910;2022-09-09T02:54:37;12.70;99.90
15044;DHT22;7619;48.562;8.910;2022-09-09T02:57:10;12.70;99.90
15044;DHT22;7619;48.562;8.910;2022-09-09T02:59:40;12.70;99.90
15044;DHT22;7619;48.562;8.910;2022-09-09T03:02:09;12.70;99.90
15044;DHT22;7619;48.562;8.910;2022-09-09T03:04:39;12.70;99.90
15044;DHT22;7619;48.562;8.910;2022-09-09T03:07:09;12.80;99.90
15044;DHT22;7619;48.562;8.910;2022-09-09T03:09:38;12.90;99.90
15044;DHT22;7619;48.562;8.910;2022-09-09T03:14:50;13.10;99.90
15044;DHT22;7619;48.562;8.910;2022-09-09T03:17:19;13.10;99.90
15044;DHT22;7619;48.562;8.910;2022-09-09T03:19:48;13.00;99.90
15044;DHT22;7619;48.562;8.910;2022-09-09T03:22:19;13.10;99.90
15044;DHT22;7619;48.562;8.910;2022-09-09T03:24:49;13.10;99.90
15044;DHT22;7619;48.562;8.910;2022-09-09T03:27:18;13.10;99.90
15044;DHT22;7619;48.562;8.910;2022-09-09T03:29:47;13.20;99.90
15044;DHT22;7619;48.562;8.910;2022-09-09T03:34:49;13.20;99.90
15044;DHT22;7619;48.562;8.910;2022-09-09T03:37:18;13.20;99.90
15044;DHT22;7619;48.562;8.910;2022-09-09T03:39:47;13.30;99.90
15044;DHT22;7619;48.562;8.910;2022-09-09T03:42:16;13.30;99.90
15044;DHT22;7619;48.562;8.910;2022-09-09T03:44:46;13.30;99.90
15044;DHT22;7619;48.562;8.910;2022-09-09T03:47:17;13.20;99.90
15044;DHT22;7619;48.562;8.910;2022-09-09T03:49:47;13.30;99.90
15044;DHT22;7619;48.562;8.910;2022-09-09T03:52:16;13.20;99.90
15044;DHT22;7619;48.562;8.910;2022-09-09T03:54:46;13.20;99.90
15044;DHT22;7619;48.562;8.910;2022-09-09T03:57:15;13.20;99.90
15044;DHT22;7619;48.562;8.910;2022-09-09T03:59:44;13.20;99.90
15044;DHT22;7619;48.562;8.910;2022-09-09T04:02:13;13.20;99.90
15044;DHT22;7619;48.562;8.910;2022-09-09T04:04:43;13.30;99.90
15044;DHT22;7619;48.562;8.910;2022-09-09T04:07:12;13.30;99.90
15044;DHT22;7619;48.562;8.910;2022-09-09T04:09:41;13.20;99.90
15044;DHT22;7619;48.562;8.910;2022-09-09T04:12:10;13.20;99.90
15044;DHT22;7619;48.562;8.910;2022-09-09T04:14:40;13.20;99.90
15044;DHT22;7619;48.562;8.910;2022-09-09T04:17:09;13.30;99.90
15044;DHT22;7619;48.562;8.910;2022-09-09T04:19:38;13.30;99.90
15044;DHT22;7619;48.562;8.910;2022-09-09T04:22:07;13.30;99.90
15044;DHT22;7619;48.562;8.910;2022-09-09T04:32:16;13.50;99.90
15044;DHT22;7619;48.562;8.910;2022-09-09T04:34:45;13.50;99.90
15044;DHT22;7619;48.562;8.910;2022-09-09T04:37:15;13.40;99.90
15044;DHT22;7619;48.562;8.910;2022-09-09T04:39:44;13.50;99.90
15044;DHT22;7619;48.562;8.910;2022-09-09T04:42:13;13.50;99.90
15044;DHT22;7619;48.562;8.910;2022-09-09T04:44:43;13.50;99.90
15044;DHT22;7619;48.562;8.910;2022-09-09T04:47:12;13.50;99.90
15044;DHT22;7619;48.562;8.910;2022-09-09T04:49:42;13.40;99.90
15044;DHT22;7619;48.562;8.910;2022-09-09T04:52:11;13.40;99.90
15044;DHT22;7619;48.562;8.910;2022-09-09T04:57:09;13.40;99.90
15044;DHT22;7619;48.562;8.910;2022-09-09T04:59:38;13.50;99.90
15044;DHT22;7619;48.562;8.910;2022-09-09T05:02:07;13.40;99.90
15044;DHT22;7619;48.562;8.910;2022-09-09T05:04:36;13.40;99.90
15044;DHT22;7619;48.562;8.910;2022-09-09T05:07:05;13.40;99.90
15044;DHT22;7619;48.562;8.910;2022-09-09T05:09:34;13.40;99.90
15044;DHT22;7619;48.562;8.910;2022-09-09T05:12:04;13.40;99.90
15044;DHT22;7619;48.562;8.910;2022-09-09T05:14:32;13.40;99.90
15044;DHT22;7619;48.562;8.910;2022-09-09T05:17:03;13.40;99.90
15044;DHT22;7619;48.562;8.910;2022-09-09T05:19:33;13.50;99.90
15044;DHT22;7619;48.562;8.910;2022-09-09T05:24:30;13.60;99.90
15044;DHT22;7619;48.562;8.910;2022-09-09T05:27:00;13.60;99.90
15044;DHT22;7619;48.562;8.910;2022-09-09T05:34:28;13.90;99.90
15044;DHT22;7619;48.562;8.910;2022-09-09T05:36:57;13.90;99.90
15044;DHT22;7619;48.562;8.910;2022-09-09T05:39:26;14.10;99.90
15044;DHT22;7619;48.562;8.910;2022-09-09T05:44:23;14.10;99.90
15044;DHT22;7619;48.562;8.910;2022-09-09T05:49:22;14.00;99.90
15044;DHT22;7619;48.562;8.910;2022-09-09T05:59:18;14.20;99.90
15044;DHT22;7619;48.562;8.910;2022-09-09T06:04:16;14.50;99.90
15044;DHT22;7619;48.562;8.910;2022-09-09T06:06:45;14.50;99.90
15044;DHT22;7619;48.562;8.910;2022-09-09T06:09:15;14.60;99.90
15044;DHT22;7619;48.562;8.910;2022-09-09T06:14:13;14.80;99.90
15044;DHT22;7619;48.562;8.910;2022-09-09T06:16:42;14.90;99.90
15044;DHT22;7619;48.562;8.910;2022-09-09T06:19:12;14.90;99.90
15044;DHT22;7619;48.562;8.910;2022-09-09T06:21:42;14.90;99.90
15044;DHT22;7619;48.562;8.910;2022-09-09T06:24:11;15.00;99.90
15044;DHT22;7619;48.562;8.910;2022-09-09T06:26:42;15.20;99.90
15044;DHT22;7619;48.562;8.910;2022-09-09T06:29:11;15.30;99.90
15044;DHT22;7619;48.562;8.910;2022-09-09T06:31:40;15.40;99.90
15044;DHT22;7619;48.562;8.910;2022-09-09T06:36:38;15.70;99.90
15044;DHT22;7619;48.562;8.910;2022-09-09T06:39:08;15.80;99.90
15044;DHT22;7619;48.562;8.910;2022-09-09T06:41:38;16.00;99.90
15044;DHT22;7619;48.562;8.910;2022-09-09T06:44:08;16.10;99.90
15044;DHT22;7619;48.562;8.910;2022-09-09T06:46:39;16.10;99.90
15044;DHT22;7619;48.562;8.910;2022-09-09T06:49:09;16.20;99.90
15044;DHT22;7619;48.562;8.910;2022-09-09T06:51:38;16.50;99.90
15044;DHT22;7619;48.562;8.910;2022-09-09T06:56:56;16.40;1.00
15044;DHT22;7619;48.562;8.910;2022-09-09T07:01:54;16.60;1.00
15044;DHT22;7619;48.562;8.910;2022-09-09T07:04:24;16.60;1.00
15044;DHT22;7619;48.562;8.910;2022-09-09T07:06:53;16.80;1.00
15044;DHT22;7619;48.562;8.910;2022-09-09T07:09:22;16.80;99.90
15044;DHT22;7619;48.562;8.910;2022-09-09T07:11:52;16.90;99.90
15044;DHT22;7619;48.562;8.910;2022-09-09T07:16:49;17.30;61.00
15044;DHT22;7619;48.562;8.910;2022-09-09T07:19:18;17.50;99.90
15044;DHT22;7619;48.562;8.910;2022-09-09T07:21:47;18.50;99.90
15044;DHT22;7619;48.562;8.910;2022-09-09T07:24:16;18.70;90.90
15044;DHT22;7619;48.562;8.910;2022-09-09T07:26:45;19.10;99.90
15044;DHT22;7619;48.562;8.910;2022-09-09T07:29:14;19.80;99.90
15044;DHT22;7619;48.562;8.910;2022-09-09T07:31:43;20.30;1.00
15044;DHT22;7619;48.562;8.910;2022-09-09T07:34:12;20.40;99.90
15044;DHT22;7619;48.562;8.910;2022-09-09T07:36:41;20.20;99.90
15044;DHT22;7619;48.562;8.910;2022-09-09T07:39:12;20.40;1.00
15044;DHT22;7619;48.562;8.910;2022-09-09T07:41:43;20.80;99.90
15044;DHT22;7619;48.562;8.910;2022-09-09T07:44:13;21.30;1.00
15044;DHT22;7619;48.562;8.910;2022-09-09T07:46:43;21.00;99.90
15044;DHT22;7619;48.562;8.910;2022-09-09T07:49:13;21.00;99.90
15044;DHT22;7619;48.562;8.910;2022-09-09T07:51:43;20.10;1.00
15044;DHT22;7619;48.562;8.910;2022-09-09T07:54:14;19.90;1.00
15044;DHT22;7619;48.562;8.910;2022-09-09T07:56:43;20.20;1.00
15044;DHT22;7619;48.562;8.910;2022-09-09T07:59:12;21.00;99.90
15044;DHT22;7619;48.562;8.910;2022-09-09T08:01:43;22.10;99.90
15044;DHT22;7619;48.562;8.910;2022-09-09T08:04:14;22.40;99.90
15044;DHT22;7619;48.562;8.910;2022-09-09T08:06:45;22.00;99.90
15044;DHT22;7619;48.562;8.910;2022-09-09T08:11:44;21.00;1.00
15044;DHT22;7619;48.562;8.910;2022-09-09T08:14:13;20.60;1.00
15044;DHT22;7619;48.562;8.910;2022-09-09T08:16:44;20.40;1.00
15044;DHT22;7619;48.562;8.910;2022-09-09T08:19:14;20.60;1.00
15044;DHT22;7619;48.562;8.910;2022-09-09T08:24:12;20.00;1.00
15044;DHT22;7619;48.562;8.910;2022-09-09T08:26:43;20.50;1.00
15044;DHT22;7619;48.562;8.910;2022-09-09T08:29:14;20.70;1.00
15044;DHT22;7619;48.562;8.910;2022-09-09T08:31:44;20.60;1.00
15044;DHT22;7619;48.562;8.910;2022-09-09T08:34:14;20.80;1.00
15044;DHT22;7619;48.562;8.910;2022-09-09T08:36:44;21.50;1.00
15044;DHT22;7619;48.562;8.910;2022-09-09T08:39:15;21.90;1.00
15044;DHT22;7619;48.562;8.910;2022-09-09T08:45:17;22.80;1.00
15044;DHT22;7619;48.562;8.910;2022-09-09T08:50:21;23.50;99.90
15044;DHT22;7619;48.562;8.910;2022-09-09T08:55:41;24.50;99.90
15044;DHT22;7619;48.562;8.910;2022-09-09T09:03:23;24.00;99.90
15044;DHT22;7619;48.562;8.910;2022-09-09T09:05:54;23.00;99.90
15044;DHT22;7619;48.562;8.910;2022-09-09T09:08:25;22.20;99.90
15044;DHT22;7619;48.562;8.910;2022-09-09T09:10:56;21.80;37.40
15044;DHT22;7619;48.562;8.910;2022-09-09T09:13:32;21.00;10.40
15044;DHT22;7619;48.562;8.910;2022-09-09T09:16:06;20.70;1.00
15044;DHT22;7619;48.562;8.910;2022-09-09T09:18:33;21.50;1.00
15044;DHT22;7619;48.562;8.910;2022-09-09T09:21:06;21.50;79.20
15044;DHT22;7619;48.562;8.910;2022-09-09T09:23:40;21.30;43.80
15044;DHT22;7619;48.562;8.910;2022-09-09T09:26:10;22.00;99.90
15044;DHT22;7619;48.562;8.910;2022-09-09T09:28:40;22.80;99.90
15044;DHT22;7619;48.562;8.910;2022-09-09T09:31:11;22.90;99.90
15044;DHT22;7619;48.562;8.910;2022-09-09T09:36:14;23.90;99.90
15044;DHT22;7619;48.562;8.910;2022-09-09T09:38:55;23.80;99.90
15044;DHT22;7619;48.562;8.910;2022-09-09T09:41:33;23.40;99.90
15044;DHT22;7619;48.562;8.910;2022-09-09T09:44:04;23.60;99.90
15044;DHT22;7619;48.562;8.910;2022-09-09T09:46:33;23.70;99.90
15044;DHT22;7619;48.562;8.910;2022-09-09T09:49:03;23.30;99.90
15044;DHT22;7619;48.562;8.910;2022-09-09T09:51:34;23.20;99.90
15044;DHT22;7619;48.562;8.910;2022-09-09T09:54:13;23.20;99.90
15044;DHT22;7619;48.562;8.910;2022-09-09T09:56:44;23.10;99.90
15044;DHT22;7619;48.562;8.910;2022-09-09T10:02:19;22.70;99.90
15044;DHT22;7619;48.562;8.910;2022-09-09T10:04:48;22.60;99.90
15044;DHT22;7619;48.562;8.910;2022-09-09T10:07:20;22.90;99.90
15044;DHT22;7619;48.562;8.910;2022-09-09T10:09:52;22.80;99.90
15044;DHT22;7619;48.562;8.910;2022-09-09T10:20:16;22.60;99.90
15044;DHT22;7619;48.562;8.910;2022-09-09T10:22:50;22.60;99.90
15044;DHT22;7619;48.562;8.910;2022-09-09T10:28:04;22.50;99.90
15044;DHT22;7619;48.562;8.910;2022-09-09T10:30:35;22.90;99.90
15044;DHT22;7619;48.562;8.910;2022-09-09T10:33:08;23.00;99.90
15044;DHT22;7619;48.562;8.910;2022-09-09T10:35:42;23.00;99.90
15044;DHT22;7619;48.562;8.910;2022-09-09T10:43:48;21.60;99.90
15044;DHT22;7619;48.562;8.910;2022-09-09T10:54:02;22.10;48.30
15044;DHT22;7619;48.562;8.910;2022-09-09T10:59:06;21.40;91.70
15044;DHT22;7619;48.562;8.910;2022-09-09T11:04:10;20.40;10.40
15044;DHT22;7619;48.562;8.910;2022-09-09T11:06:43;20.10;1.00
15044;DHT22;7619;48.562;8.910;2022-09-09T11:09:15;19.40;1.00
15044;DHT22;7619;48.562;8.910;2022-09-09T11:11:49;18.90;1.00
15044;DHT22;7619;48.562;8.910;2022-09-09T11:19:21;18.80;1.00
15044;DHT22;7619;48.562;8.910;2022-09-09T11:21:52;18.80;1.00
15044;DHT22;7619;48.562;8.910;2022-09-09T11:24:23;18.80;1.00
15044;DHT22;7619;48.562;8.910;2022-09-09T11:29:45;19.00;1.00
15044;DHT22;7619;48.562;8.910;2022-09-09T11:35:21;19.60;27.80
15044;DHT22;7619;48.562;8.910;2022-09-09T11:40:27;21.20;99.90
15044;DHT22;7619;48.562;8.910;2022-09-09T11:43:05;21.30;99.90
15044;DHT22;7619;48.562;8.910;2022-09-09T11:45:36;21.60;99.90
15044;DHT22;7619;48.562;8.910;2022-09-09T11:48:21;21.90;99.90
15044;DHT22;7619;48.562;8.910;2022-09-09T11:53:22;22.30;99.90
15044;DHT22;7619;48.562;8.910;2022-09-09T11:56:06;22.60;99.90
15044;DHT22;7619;48.562;8.910;2022-09-09T11:58:39;22.70;99.90
15044;DHT22;7619;48.562;8.910;2022-09-09T12:06:29;21.90;94.50
15044;DHT22;7619;48.562;8.910;2022-09-09T12:09:06;21.50;83.40
15044;DHT22;7619;48.562;8.910;2022-09-09T12:17:08;21.00;43.10
15044;DHT22;7619;48.562;8.910;2022-09-09T12:19:37;21.10;32.90
15044;DHT22;7619;48.562;8.910;2022-09-09T12:29:41;20.90;99.90
15044;DHT22;7619;48.562;8.910;2022-09-09T12:32:12;20.50;99.90
15044;DHT22;7619;48.562;8.910;2022-09-09T12:34:44;20.20;99.90
15044;DHT22;7619;48.562;8.910;2022-09-09T12:39:50;20.20;76.40
15044;DHT22;7619;48.562;8.910;2022-09-09T12:42:22;20.20;52.50
15044;DHT22;7619;48.562;8.910;2022-09-09T12:49:54;20.30;81.50
15044;DHT22;7619;48.562;8.910;2022-09-09T12:52:27;20.90;72.80
15044;DHT22;7619;48.562;8.910;2022-09-09T12:55:01;21.30;99.90
15044;DHT22;7619;48.562;8.910;2022-09-09T12:57:34;21.30;99.90
15044;DHT22;7619;48.562;8.910;2022-09-09T13:00:13;21.60;99.90
15044;DHT22;7619;48.562;8.910;2022-09-09T13:02:51;22.50;99.90
15044;DHT22;7619;48.562;8.910;2022-09-09T13:05:23;22.10;99.90
15044;DHT22;7619;48.562;8.910;2022-09-09T13:08:00;21.90;99.90
15044;DHT22;7619;48.562;8.910;2022-09-09T13:10:26;21.70;99.90
15044;DHT22;7619;48.562;8.910;2022-09-09T13:12:56;21.10;99.90
15044;DHT22;7619;48.562;8.910;2022-09-09T13:15:28;20.70;99.90
15044;DHT22;7619;48.562;8.910;2022-09-09T13:18:01;20.60;95.30
15044;DHT22;7619;48.562;8.910;2022-09-09T13:20:30;20.90;99.90
15044;DHT22;7619;48.562;8.910;2022-09-09T13:22:59;21.60;99.90
15044;DHT22;7619;48.562;8.910;2022-09-09T13:25:28;22.40;99.90
15044;DHT22;7619;48.562;8.910;2022-09-09T13:27:59;23.00;99.90
15044;DHT22;7619;48.562;8.910;2022-09-09T13:30:31;23.30;99.90
15044;DHT22;7619;48.562;8.910;2022-09-09T13:33:22;23.00;99.90
15044;DHT22;7619;48.562;8.910;2022-09-09T13:35:54;21.70;99.90
15044;DHT22;7619;48.562;8.910;2022-09-09T13:38:24;21.90;99.90
15044;DHT22;7619;48.562;8.910;2022-09-09T13:40:58;22.50;99.90
15044;DHT22;7619;48.562;8.910;2022-09-09T13:46:00;22.60;99.90
15044;DHT22;7619;48.562;8.910;2022-09-09T13:48:29;23.00;99.90
15044;DHT22;7619;48.562;8.910;2022-09-09T13:51:01;22.90;99.90
15044;DHT22;7619;48.562;8.910;2022-09-09T13:53:32;22.90;99.90
15044;DHT22;7619;48.562;8.910;2022-09-09T13:56:01;22.60;99.90
15044;DHT22;7619;48.562;8.910;2022-09-09T14:03:47;21.10;99.90
15044;DHT22;7619;48.562;8.910;2022-09-09T14:11:32;23.20;99.90
15044;DHT22;7619;48.562;8.910;2022-09-09T14:14:01;23.90;99.90
15044;DHT22;7619;48.562;8.910;2022-09-09T14:18:58;23.70;99.90
15044;DHT22;7619;48.562;8.910;2022-09-09T14:21:28;23.50;99.90
15044;DHT22;7619;48.562;8.910;2022-09-09T14:26:26;24.10;99.90
15044;DHT22;7619;48.562;8.910;2022-09-09T14:28:57;24.00;99.90
15044;DHT22;7619;48.562;8.910;2022-09-09T14:31:26;23.70;99.90
15044;DHT22;7619;48.562;8.910;2022-09-09T14:33:55;24.00;99.90
15044;DHT22;7619;48.562;8.910;2022-09-09T14:38:52;24.00;99.90
15044;DHT22;7619;48.562;8.910;2022-09-09T14:41:21;23.90;99.90
15044;DHT22;7619;48.562;8.910;2022-09-09T14:43:51;23.70;99.90
15044;DHT22;7619;48.562;8.910;2022-09-09T14:48:49;23.90;99.90
15044;DHT22;7619;48.562;8.910;2022-09-09T14:51:20;23.70;99.90
15044;DHT22;7619;48.562;8.910;2022-09-09T14:53:51;23.40;99.90
15044;DHT22;7619;48.562;8.910;2022-09-09T14:56:22;23.50;99.90
15044;DHT22;7619;48.562;8.910;2022-09-09T14:58:54;23.70;99.90
15044;DHT22;7619;48.562;8.910;2022-09-09T15:03:53;23.80;99.90
15044;DHT22;7619;48.562;8.910;2022-09-09T15:06:24;23.70;99.90
15044;DHT22;7619;48.562;8.910;2022-09-09T15:08:54;22.60;99.90
15044;DHT22;7619;48.562;8.910;2022-09-09T15:11:27;21.70;99.90
15044;DHT22;7619;48.562;8.910;2022-09-09T15:13:57;21.10;99.90
15044;DHT22;7619;48.562;8.910;2022-09-09T15:16:27;20.90;99.90
15044;DHT22;7619;48.562;8.910;2022-09-09T15:18:58;21.30;99.90
15044;DHT22;7619;48.562;8.910;2022-09-09T15:21:29;21.70;99.90
15044;DHT22;7619;48.562;8.910;2022-09-09T15:23:58;21.60;99.90
15044;DHT22;7619;48.562;8.910;2022-09-09T15:26:28;21.50;99.90
15044;DHT22;7619;48.562;8.910;2022-09-09T15:28:58;21.80;99.90
15044;DHT22;7619;48.562;8.910;2022-09-09T15:31:29;21.70;99.90
15044;DHT22;7619;48.562;8.910;2022-09-09T15:33:59;21.20;99.90
15044;DHT22;7619;48.562;8.910;2022-09-09T15:36:30;20.70;99.90
15044;DHT22;7619;48.562;8.910;2022-09-09T15:39:00;20.30;99.90
15044;DHT22;7619;48.562;8.910;2022-09-09T15:41:30;20.00;93.10
15044;DHT22;7619;48.562;8.910;2022-09-09T15:44:01;19.80;79.90
15044;DHT22;7619;48.562;8.910;2022-09-09T15:46:31;19.70;70.00
15044;DHT22;7619;48.562;8.910;2022-09-09T15:49:06;19.70;72.10
15044;DHT22;7619;48.562;8.910;2022-09-09T15:51:37;19.70;58.30
15044;DHT22;7619;48.562;8.910;2022-09-09T15:54:06;19.80;53.50
15044;DHT22;7619;48.562;8.910;2022-09-09T15:56:35;19.90;59.10
15044;DHT22;7619;48.562;8.910;2022-09-09T15:59:04;20.10;67.20
15044;DHT22;7619;48.562;8.910;2022-09-09T16:01:33;20.10;77.10
15044;DHT22;7619;48.562;8.910;2022-09-09T16:04:03;20.20;78.10
15044;DHT22;7619;48.562;8.910;2022-09-09T16:11:33;20.60;92.80
15044;DHT22;7619;48.562;8.910;2022-09-09T16:14:02;20.70;93.30
15044;DHT22;7619;48.562;8.910;2022-09-09T16:16:33;20.50;91.70
15044;DHT22;7619;48.562;8.910;2022-09-09T16:19:05;20.40;94.10
15044;DHT22;7619;48.562;8.910;2022-09-09T16:26:35;19.90;53.80
15044;DHT22;7619;48.562;8.910;2022-09-09T16:29:05;19.80;61.70
15044;DHT22;7619;48.562;8.910;2022-09-09T16:36:33;19.50;58.50
15044;DHT22;7619;48.562;8.910;2022-09-09T16:41:32;19.50;49.00
15044;DHT22;7619;48.562;8.910;2022-09-09T16:44:02;19.40;23.40
15044;DHT22;7619;48.562;8.910;2022-09-09T16:46:34;19.40;17.20
15044;DHT22;7619;48.562;8.910;2022-09-09T16:49:06;19.30;7.10
15044;DHT22;7619;48.562;8.910;2022-09-09T16:51:36;19.20;5.00
15044;DHT22;7619;48.562;8.910;2022-09-09T16:54:08;19.10;1.00
15044;DHT22;7619;48.562;8.910;2022-09-09T16:56:39;19.10;1.00
15044;DHT22;7619;48.562;8.910;2022-09-09T17:01:39;19.10;1.00
15044;DHT22;7619;48.562;8.910;2022-09-09T17:04:10;19.10;1.00
15044;DHT22;7619;48.562;8.910;2022-09-09T17:11:39;18.90;1.00
15044;DHT22;7619;48.562;8.910;2022-09-09T17:14:11;18.80;1.00
15044;DHT22;7619;48.562;8.910;2022-09-09T17:16:40;18.70;1.00
15044;DHT22;7619;48.562;8.910;2022-09-09T17:19:11;18.70;1.00
15044;DHT22;7619;48.562;8.910;2022-09-09T17:26:44;18.40;1.00
15044;DHT22;7619;48.562;8.910;2022-09-09T17:29:13;18.30;1.00
15044;DHT22;7619;48.562;8.910;2022-09-09T17:31:42;18.20;1.00
15044;DHT22;7619;48.562;8.910;2022-09-09T17:34:11;18.10;1.00
15044;DHT22;7619;48.562;8.910;2022-09-09T17:39:08;18.00;1.00
15044;DHT22;7619;48.562;8.910;2022-09-09T17:44:06;17.90;1.00
15044;DHT22;7619;48.562;8.910;2022-09-09T17:46:38;17.80;1.00
15044;DHT22;7619;48.562;8.910;2022-09-09T17:51:37;17.70;1.00
15044;DHT22;7619;48.562;8.910;2022-09-09T17:54:08;17.70;1.00
15044;DHT22;7619;48.562;8.910;2022-09-09T17:56:38;17.60;1.00
15044;DHT22;7619;48.562;8.910;2022-09-09T17:59:08;17.60;1.00
15044;DHT22;7619;48.562;8.910;2022-09-09T18:01:40;17.50;1.00
15044;DHT22;7619;48.562;8.910;2022-09-09T18:06:42;17.50;1.00
15044;DHT22;7619;48.562;8.910;2022-09-09T18:11:43;17.40;1.00
15044;DHT22;7619;48.562;8.910;2022-09-09T18:14:14;17.40;1.70
15044;DHT22;7619;48.562;8.910;2022-09-09T18:16:44;17.40;3.90
15044;DHT22;7619;48.562;8.910;2022-09-09T18:19:16;17.60;18.90
15044;DHT22;7619;48.562;8.910;2022-09-09T18:21:46;17.80;60.30
15044;DHT22;7619;48.562;8.910;2022-09-09T18:24:16;17.90;58.50
15044;DHT22;7619;48.562;8.910;2022-09-09T18:26:46;17.90;67.00
15044;DHT22;7619;48.562;8.910;2022-09-09T18:31:44;17.80;51.90
15044;DHT22;7619;48.562;8.910;2022-09-09T18:34:16;17.70;50.10
15044;DHT22;7619;48.562;8.910;2022-09-09T18:36:46;17.80;24.60
15044;DHT22;7619;48.562;8.910;2022-09-09T18:39:17;17.90;32.50
15044;DHT22;7619;48.562;8.910;2022-09-09T18:46:45;18.00;44.20
15044;DHT22;7619;48.562;8.910;2022-09-09T18:49:14;17.90;67.80
15044;DHT22;7619;48.562;8.910;2022-09-09T19:28:59;17.30;53.70
15044;DHT22;7619;48.562;8.910;2022-09-09T19:36:26;17.40;95.40
15044;DHT22;7619;48.562;8.910;2022-09-09T19:43:55;16.70;59.00
15044;DHT22;7619;48.562;8.910;2022-09-09T19:46:26;16.90;77.20
15044;DHT22;7619;48.562;8.910;2022-09-09T19:48:57;16.80;97.90
